createdAt,value
2022-08-07T00:00:40.647Z,99.99
2022-08-07T00:02:35.238Z,99.99
2022-08-07T00:02:44.368Z,99.99
2022-08-07T00:03:39.986Z,99.99
2022-08-07T00:04:41.376Z,99.99
2022-08-07T00:05:40.366Z,99.99
2022-08-07T00:06:40.940Z,99.99
2022-08-07T00:07:41.819Z,99.99
2022-08-07T00:08:44.536Z,99.99
2022-08-07T00:09:40.876Z,99.99
2022-08-07T00:10:47.641Z,99.99
2022-08-07T00:11:53.882Z,99.99
2022-08-07T00:12:57.879Z,99.99
2022-08-07T00:13:44.851Z,99.99
2022-08-07T00:14:44.230Z,99.99
2022-08-07T00:15:46.792Z,99.99
2022-08-07T00:16:42.927Z,99.99
2022-08-07T00:17:42.034Z,99.99
2022-08-07T00:18:42.165Z,99.99
2022-08-07T00:20:01.007Z,99.99
2022-08-07T00:20:43.475Z,99.99
2022-08-07T00:21:57.202Z,99.99
2022-08-07T00:22:43.661Z,99.99
2022-08-07T00:23:43.743Z,99.99
2022-08-07T00:24:42.935Z,99.99
2022-08-07T00:25:43.027Z,99.99
2022-08-07T00:26:49.127Z,99.99
2022-08-07T00:27:52.384Z,99.99
2022-08-07T00:28:46.008Z,99.99
2022-08-07T00:29:44.626Z,99.99
2022-08-07T00:30:43.723Z,99.99
2022-08-07T00:31:43.852Z,99.99
2022-08-07T00:32:45.071Z,99.99
2022-08-07T00:33:47.784Z,99.99
2022-08-07T00:34:44.203Z,99.99
2022-08-07T00:35:49.034Z,99.99
2022-08-07T00:36:45.452Z,99.99
2022-08-07T00:37:48.374Z,99.99
2022-08-07T00:38:44.679Z,99.99
2022-08-07T00:39:45.305Z,99.99
2022-08-07T00:40:45.927Z,99.99
2022-08-07T00:41:53.321Z,99.99
2022-08-07T00:42:46.238Z,99.99
2022-08-07T00:43:59.195Z,99.99
2022-08-07T00:44:46.472Z,99.99
2022-08-07T00:45:46.601Z,99.99
2022-08-07T00:46:45.805Z,99.99
2022-08-07T00:48:08.915Z,99.99
2022-08-07T00:48:49.727Z,99.99
2022-08-07T00:50:19.864Z,99.99
2022-08-07T00:50:51.311Z,99.99
2022-08-07T00:51:57.503Z,99.99
2022-08-07T00:52:47.712Z,99.99
2022-08-07T00:53:55.014Z,99.99
2022-08-07T00:54:53.770Z,99.99
2022-08-07T00:56:02.665Z,99.99
2022-08-07T00:56:49.869Z,99.99
2022-08-07T00:57:56.042Z,99.99
2022-08-07T00:58:49.687Z,99.99
2022-08-07T00:59:47.313Z,99.99
2022-08-07T01:00:53.541Z,99.99
2022-08-07T01:01:48.675Z,99.99
2022-08-07T01:02:47.855Z,99.99
2022-08-07T01:03:56.981Z,99.99
2022-08-07T01:04:49.009Z,99.99
2022-08-07T01:05:53.516Z,99.99
2022-08-07T01:06:53.841Z,99.99
2022-08-07T01:07:48.349Z,99.99
2022-08-07T01:08:53.030Z,99.99
2022-08-07T01:10:06.578Z,99.99
2022-08-07T01:10:54.400Z,99.99
2022-08-07T01:12:23.439Z,99.99
2022-08-07T01:12:53.949Z,99.99
2022-08-07T01:13:55.821Z,99.99
2022-08-07T01:14:50.320Z,99.99
2022-08-07T01:16:01.086Z,99.99
2022-08-07T01:16:50.589Z,99.99
2022-08-07T01:17:49.733Z,99.99
2022-08-07T01:18:49.879Z,99.99
2022-08-07T01:19:54.464Z,99.99
2022-08-07T01:20:57.277Z,99.99
2022-08-07T01:21:53.237Z,99.99
2022-08-07T01:23:00.407Z,99.99
2022-08-07T01:23:51.490Z,99.99
2022-08-07T01:24:50.621Z,99.99
2022-08-07T01:25:55.741Z,99.99
2022-08-07T01:26:52.692Z,99.99
2022-08-07T01:27:51.609Z,99.99
2022-08-07T01:28:51.109Z,99.99
2022-08-07T01:29:51.187Z,99.99
2022-08-07T01:30:52.098Z,99.99
2022-08-07T01:31:51.437Z,99.99
2022-08-07T01:32:51.581Z,99.99
2022-08-07T01:33:57.428Z,99.99
2022-08-07T01:34:52.877Z,99.99
2022-08-07T01:35:54.326Z,99.99
2022-08-07T01:36:52.655Z,99.99
2022-08-07T01:37:53.248Z,99.99
2022-08-07T01:38:52.388Z,99.99
2022-08-07T01:39:52.605Z,99.99
2022-08-07T01:40:52.736Z,99.99
2022-08-07T01:42:06.110Z,99.99
2022-08-07T01:42:58.685Z,99.99
2022-08-07T01:43:54.139Z,99.99
2022-08-07T01:44:53.338Z,99.99
2022-08-07T01:45:54.593Z,99.99
2022-08-07T01:46:53.498Z,99.99
2022-08-07T01:48:21.110Z,99.99
2022-08-07T01:48:54.759Z,99.99
2022-08-07T01:49:54.836Z,99.99
2022-08-07T01:50:55.596Z,99.99
2022-08-07T01:52:04.258Z,99.99
2022-08-07T01:52:55.419Z,99.99
2022-08-07T01:54:11.771Z,99.99
2022-08-07T01:54:55.726Z,99.99
2022-08-07T01:55:54.849Z,99.99
2022-08-07T01:56:55.154Z,99.99
2022-08-07T01:58:06.096Z,99.99
2022-08-07T01:58:56.223Z,99.99
2022-08-07T01:59:55.308Z,99.99
2022-08-07T02:01:09.488Z,99.99
2022-08-07T02:02:02.876Z,99.99
2022-08-07T02:03:18.835Z,99.99
2022-08-07T02:03:56.845Z,99.99
2022-08-07T02:04:57.276Z,99.99
2022-08-07T02:05:59.655Z,99.99
2022-08-07T02:06:57.206Z,99.99
2022-08-07T02:07:56.328Z,99.99
2022-08-07T02:08:56.568Z,99.99
2022-08-07T02:09:58.781Z,99.99
2022-08-07T02:10:57.900Z,99.99
2022-08-07T02:12:03.704Z,99.99
2022-08-07T02:12:58.076Z,99.99
2022-08-07T02:14:02.362Z,99.99
2022-08-07T02:14:58.427Z,99.99
2022-08-07T02:15:57.519Z,99.99
2022-08-07T02:16:57.626Z,99.99
2022-08-07T02:17:57.741Z,99.99
2022-08-07T02:18:57.887Z,99.99
2022-08-07T02:20:07.708Z,99.99
2022-08-07T02:20:59.139Z,99.99
2022-08-07T02:21:59.270Z,99.99
2022-08-07T02:22:59.751Z,99.99
2022-08-07T02:23:58.494Z,99.99
2022-08-07T02:24:58.674Z,99.99
2022-08-07T02:26:30.995Z,99.99
2022-08-07T02:27:01.367Z,99.99
2022-08-07T02:27:59.034Z,99.99
2022-08-07T02:28:59.216Z,99.99
2022-08-07T02:29:59.372Z,99.99
2022-08-07T02:30:59.524Z,99.99
2022-08-07T02:32:00.635Z,99.99
2022-08-07T02:33:00.165Z,99.99
2022-08-07T02:34:03.223Z,99.99
2022-08-07T02:35:01.139Z,99.99
2022-08-07T02:36:27.157Z,99.99
2022-08-07T02:37:01.256Z,99.99
2022-08-07T02:38:00.374Z,99.99
2022-08-07T02:39:00.617Z,99.99
2022-08-07T02:40:11.747Z,99.99
2022-08-07T02:41:04.105Z,99.99
2022-08-07T02:42:00.933Z,99.99
2022-08-07T02:43:01.065Z,99.99
2022-08-07T02:44:02.163Z,99.99
2022-08-07T02:45:01.292Z,99.99
2022-08-07T02:46:02.853Z,99.99
2022-08-07T02:47:01.535Z,99.99
2022-08-07T02:48:01.950Z,99.99
2022-08-07T02:49:03.340Z,99.99
2022-08-07T02:50:01.853Z,99.99
2022-08-07T02:51:02.033Z,99.99
2022-08-07T02:52:02.175Z,99.99
2022-08-07T02:53:06.283Z,99.99
2022-08-07T02:54:02.449Z,99.99
2022-08-07T02:55:02.588Z,99.99
2022-08-07T02:56:11.245Z,99.99
2022-08-07T02:57:03.876Z,99.99
2022-08-07T02:58:03.011Z,99.99
2022-08-07T02:59:03.233Z,99.99
2022-08-07T03:00:10.348Z,99.99
2022-08-07T03:01:04.454Z,99.99
2022-08-07T03:02:03.575Z,99.99
2022-08-07T03:03:05.987Z,99.99
2022-08-07T03:04:07.540Z,99.99
2022-08-07T03:05:06.772Z,99.99
2022-08-07T03:06:04.067Z,99.99
2022-08-07T03:07:10.335Z,99.99
2022-08-07T03:08:09.323Z,99.99
2022-08-07T03:09:05.404Z,99.99
2022-08-07T03:10:04.517Z,99.99
2022-08-07T03:11:04.630Z,99.99
2022-08-07T03:12:04.767Z,99.99
2022-08-07T03:13:04.943Z,99.99
2022-08-07T03:14:04.990Z,99.99
2022-08-07T03:15:07.428Z,99.99
2022-08-07T03:16:05.240Z,99.99
2022-08-07T03:17:05.393Z,99.99
2022-08-07T03:18:05.518Z,99.99
2022-08-07T03:19:05.684Z,99.99
2022-08-07T03:20:05.832Z,99.99
2022-08-07T03:21:08.524Z,99.99
2022-08-07T03:22:07.119Z,99.99
2022-08-07T03:23:06.272Z,99.99
2022-08-07T03:24:17.645Z,99.99
2022-08-07T03:25:07.470Z,99.99
2022-08-07T03:26:06.629Z,99.99
2022-08-07T03:27:09.101Z,99.99
2022-08-07T03:28:09.643Z,99.99
2022-08-07T03:29:10.421Z,99.99
2022-08-07T03:30:07.237Z,99.99
2022-08-07T03:31:07.329Z,99.99
2022-08-07T03:32:07.447Z,99.99
2022-08-07T03:33:10.084Z,99.99
2022-08-07T03:34:07.721Z,99.99
2022-08-07T03:35:17.988Z,99.99
2022-08-07T03:36:08.941Z,99.99
2022-08-07T03:37:12.337Z,99.99
2022-08-07T03:38:08.170Z,99.99
2022-08-07T03:39:09.386Z,99.99
2022-08-07T03:40:16.458Z,99.99
2022-08-07T03:41:10.358Z,99.99
2022-08-07T03:42:08.784Z,99.99
2022-08-07T03:43:13.757Z,99.99
2022-08-07T03:44:10.069Z,99.99
2022-08-07T03:45:09.197Z,99.99
2022-08-07T03:46:10.507Z,99.99
2022-08-07T03:47:13.521Z,99.99
2022-08-07T03:48:09.997Z,99.99
2022-08-07T03:49:09.766Z,99.99
2022-08-07T03:50:10.588Z,99.99
2022-08-07T03:51:10.259Z,99.99
2022-08-07T03:52:22.441Z,99.99
2022-08-07T03:53:11.375Z,99.99
2022-08-07T03:54:35.191Z,99.99
2022-08-07T03:55:11.659Z,99.99
2022-08-07T03:56:10.829Z,99.99
2022-08-07T03:57:10.977Z,99.99
2022-08-07T03:59:05.735Z,99.99
2022-08-07T03:59:14.776Z,99.99
2022-08-07T04:00:11.411Z,99.99
2022-08-07T04:01:11.810Z,99.99
2022-08-07T04:02:11.725Z,99.99
2022-08-07T04:03:11.894Z,99.99
2022-08-07T04:04:17.197Z,99.99
2022-08-07T04:05:13.086Z,99.99
2022-08-07T04:06:36.336Z,99.99
2022-08-07T04:07:16.802Z,99.99
2022-08-07T04:08:12.506Z,99.99
2022-08-07T04:09:15.650Z,99.99
2022-08-07T04:10:15.426Z,99.99
2022-08-07T04:12:23.897Z,99.99
2022-08-07T04:12:26.249Z,99.99
2022-08-07T04:13:15.331Z,99.99
2022-08-07T04:14:36.993Z,99.99
2022-08-07T04:15:14.484Z,99.99
2022-08-07T04:16:13.668Z,99.99
2022-08-07T04:17:20.287Z,99.99
2022-08-07T04:18:59.890Z,99.99
2022-08-07T04:19:15.661Z,99.99
2022-08-07T04:20:14.177Z,99.99
2022-08-07T04:21:14.297Z,99.99
2022-08-07T04:22:17.307Z,99.99
2022-08-07T04:23:19.187Z,99.99
2022-08-07T04:24:33.734Z,99.99
2022-08-07T04:25:15.909Z,99.99
2022-08-07T04:26:16.842Z,99.99
2022-08-07T04:27:25.419Z,99.99
2022-08-07T04:28:16.263Z,99.99
2022-08-07T04:29:16.371Z,99.99
2022-08-07T04:30:21.035Z,99.99
2022-08-07T04:31:20.024Z,99.99
2022-08-07T04:32:15.863Z,99.99
2022-08-07T04:33:16.027Z,99.99
2022-08-07T04:34:16.832Z,99.99
2022-08-07T04:35:16.297Z,99.99
2022-08-07T04:36:16.425Z,99.99
2022-08-07T04:37:20.495Z,99.99
2022-08-07T04:38:16.766Z,99.99
2022-08-07T04:39:17.646Z,99.99
2022-08-07T04:40:17.052Z,99.99
2022-08-07T04:41:19.115Z,99.99
2022-08-07T04:42:17.294Z,99.99
2022-08-07T04:43:17.395Z,99.99
2022-08-07T04:44:18.889Z,99.99
2022-08-07T04:45:21.059Z,99.99
2022-08-07T04:46:25.983Z,99.99
2022-08-07T04:47:23.622Z,99.99
2022-08-07T04:48:19.105Z,99.99
2022-08-07T04:49:25.579Z,99.99
2022-08-07T04:50:19.342Z,99.99
2022-08-07T04:51:18.496Z,99.99
2022-08-07T04:52:18.678Z,99.99
2022-08-07T04:53:39.895Z,99.99
2022-08-07T04:54:22.909Z,99.99
2022-08-07T04:58:11.330Z,99.99
2022-08-07T04:58:14.295Z,99.99
2022-08-07T04:58:23.555Z,99.99
2022-08-07T04:58:34.830Z,99.99
2022-08-07T05:00:11.476Z,99.99
2022-08-07T05:00:30.077Z,99.99
2022-08-07T05:01:20.892Z,99.99
2022-08-07T05:02:20.975Z,99.99
2022-08-07T05:04:00.334Z,99.99
2022-08-07T05:04:21.236Z,99.99
2022-08-07T05:05:52.631Z,99.99
2022-08-07T05:06:21.483Z,99.99
2022-08-07T05:07:21.142Z,99.99
2022-08-07T05:08:59.307Z,99.99
2022-08-07T05:09:43.034Z,99.99
2022-08-07T05:10:21.981Z,99.99
2022-08-07T05:11:24.481Z,99.99
2022-08-07T05:12:27.402Z,99.99
2022-08-07T05:14:52.379Z,99.99
2022-08-07T05:14:56.260Z,99.99
2022-08-07T05:15:23.825Z,99.99
2022-08-07T05:16:21.731Z,99.99
2022-08-07T05:17:52.698Z,99.99
2022-08-07T05:18:22.990Z,99.99
2022-08-07T05:19:32.581Z,99.99
2022-08-07T05:20:23.207Z,99.99
2022-08-07T05:21:59.532Z,99.99
2022-08-07T05:22:27.633Z,99.99
2022-08-07T05:23:23.160Z,99.99
2022-08-07T05:24:24.539Z,99.99
2022-08-07T05:25:35.633Z,99.99
2022-08-07T05:26:24.648Z,99.99
2022-08-07T05:28:15.980Z,99.99
2022-08-07T05:28:26.803Z,99.99
2022-08-07T05:29:23.361Z,99.99
2022-08-07T05:30:30.096Z,99.99
2022-08-07T05:31:24.532Z,99.99
2022-08-07T05:32:24.659Z,99.99
2022-08-07T05:33:23.798Z,99.99
2022-08-07T05:34:26.186Z,99.99
2022-08-07T05:35:24.080Z,99.99
2022-08-07T05:36:32.114Z,99.99
2022-08-07T05:37:25.689Z,99.99
2022-08-07T05:39:00.729Z,99.99
2022-08-07T05:40:13.365Z,99.99
2022-08-07T05:40:25.724Z,99.99
2022-08-07T05:41:24.898Z,99.99
2022-08-07T05:42:34.384Z,99.99
2022-08-07T05:43:50.226Z,99.99
2022-08-07T05:44:29.148Z,99.99
2022-08-07T05:45:46.338Z,99.99
2022-08-07T05:46:26.559Z,99.99
2022-08-07T05:47:38.094Z,99.99
2022-08-07T05:48:26.871Z,99.99
2022-08-07T05:49:25.765Z,99.99
2022-08-07T05:50:25.930Z,99.99
2022-08-07T05:51:25.998Z,99.70
2022-08-07T05:52:32.565Z,99.35
2022-08-07T05:54:13.096Z,99.15
2022-08-07T05:54:44.271Z,99.15
2022-08-07T05:56:02.403Z,98.69
2022-08-07T05:56:30.140Z,98.39
2022-08-07T05:57:30.491Z,98.39
2022-08-07T05:58:36.126Z,98.59
2022-08-07T05:59:28.093Z,98.79
2022-08-07T06:00:27.195Z,98.75
2022-08-07T06:01:27.304Z,98.75
2022-08-07T06:02:29.224Z,98.65
2022-08-07T06:03:27.472Z,98.44
2022-08-07T06:04:30.146Z,98.54
2022-08-07T06:05:28.537Z,98.24
2022-08-07T06:06:29.546Z,97.58
2022-08-07T06:08:14.392Z,97.28
2022-08-07T06:08:30.874Z,97.03
2022-08-07T06:10:04.348Z,96.92
2022-08-07T06:10:29.329Z,96.68
2022-08-07T06:11:28.674Z,96.27
2022-08-07T06:12:32.959Z,95.51
2022-08-07T06:14:10.856Z,95.51
2022-08-07T06:14:30.275Z,93.38
2022-08-07T06:15:39.210Z,93.48
2022-08-07T06:16:30.100Z,93.84
2022-08-07T06:17:32.140Z,94.05
2022-08-07T06:18:30.297Z,93.24
2022-08-07T06:19:52.282Z,92.42
2022-08-07T06:20:49.873Z,92.42
2022-08-07T06:22:14.460Z,92.48
2022-08-07T06:22:33.333Z,92.58
2022-08-07T06:24:37.509Z,92.38
2022-08-07T06:24:45.569Z,92.18
2022-08-07T06:25:34.772Z,91.42
2022-08-07T06:26:31.327Z,89.90
2022-08-07T06:27:59.718Z,89.15
2022-08-07T06:28:31.605Z,88.80
2022-08-07T06:29:30.726Z,88.80
2022-08-07T06:30:35.742Z,87.89
2022-08-07T06:31:38.845Z,87.69
2022-08-07T06:32:32.669Z,87.89
2022-08-07T06:33:33.046Z,85.93
2022-08-07T06:34:31.365Z,86.43
2022-08-07T06:35:45.400Z,86.73
2022-08-07T06:36:35.179Z,87.20
2022-08-07T06:37:44.069Z,86.90
2022-08-07T06:38:32.825Z,85.88
2022-08-07T06:40:16.202Z,84.83
2022-08-07T06:40:35.067Z,84.63
2022-08-07T06:42:01.923Z,84.73
2022-08-07T06:42:35.234Z,84.19
2022-08-07T06:43:39.569Z,83.78
2022-08-07T06:44:34.011Z,83.07
2022-08-07T06:45:32.698Z,82.22
2022-08-07T06:46:35.251Z,82.62
2022-08-07T06:47:48.294Z,82.28
2022-08-07T06:48:34.036Z,81.88
2022-08-07T06:49:33.136Z,81.68
2022-08-07T06:50:33.280Z,82.28
2022-08-07T06:51:33.886Z,81.44
2022-08-07T06:52:35.700Z,80.93
2022-08-07T06:54:12.198Z,81.13
2022-08-07T06:55:33.270Z,80.39
2022-08-07T06:55:59.906Z,80.59
2022-08-07T06:56:35.027Z,79.79
2022-08-07T06:57:39.816Z,79.74
2022-08-07T06:58:35.283Z,79.24
2022-08-07T07:00:15.034Z,78.84
2022-08-07T07:00:35.527Z,79.24
2022-08-07T07:01:43.813Z,79.04
2022-08-07T07:02:53.792Z,78.39
2022-08-07T07:03:48.942Z,77.79
2022-08-07T07:04:36.087Z,76.75
2022-08-07T07:06:03.307Z,77.66
2022-08-07T07:06:39.416Z,76.14
2022-08-07T07:07:59.922Z,76.61
2022-08-07T07:08:39.958Z,77.21
2022-08-07T07:09:36.724Z,76.81
2022-08-07T07:10:35.838Z,76.61
2022-08-07T07:12:10.666Z,76.20
2022-08-07T07:12:37.058Z,76.17
2022-08-07T07:13:55.582Z,75.36
2022-08-07T07:14:37.307Z,75.43
2022-08-07T07:15:38.338Z,74.42
2022-08-07T07:16:39.230Z,73.48
2022-08-07T07:17:38.811Z,72.24
2022-08-07T07:18:47.704Z,72.03
2022-08-07T07:19:55.874Z,71.40
2022-08-07T07:20:38.034Z,71.40
2022-08-07T07:22:04.174Z,70.89
2022-08-07T07:24:05.991Z,70.79
2022-08-07T07:24:08.908Z,70.56
2022-08-07T07:24:38.546Z,68.75
2022-08-07T07:26:35.523Z,68.92
2022-08-07T07:26:38.855Z,68.02
2022-08-07T07:27:58.583Z,68.52
2022-08-07T07:28:48.280Z,68.52
2022-08-07T07:30:09.395Z,68.02
2022-08-07T07:30:39.694Z,68.49
2022-08-07T07:31:40.172Z,67.88
2022-08-07T07:32:39.475Z,68.45
2022-08-07T07:33:38.635Z,68.95
2022-08-07T07:34:39.656Z,67.45
2022-08-07T07:35:43.960Z,66.82
2022-08-07T07:36:40.452Z,66.82
2022-08-07T07:37:58.942Z,66.38
2022-08-07T07:38:40.276Z,66.38
2022-08-07T07:39:51.980Z,66.15
2022-08-07T07:40:40.541Z,65.85
2022-08-07T07:42:02.327Z,65.75
2022-08-07T07:42:40.757Z,64.84
2022-08-07T07:44:14.344Z,64.25
2022-08-07T07:44:41.017Z,63.71
2022-08-07T07:46:38.023Z,63.81
2022-08-07T07:46:55.200Z,63.71
2022-08-07T07:47:52.052Z,63.31
2022-08-07T07:48:41.516Z,63.42
2022-08-07T07:50:35.392Z,62.38
2022-08-07T07:50:41.777Z,61.98
2022-08-07T07:51:57.389Z,62.08
2022-08-07T07:52:42.039Z,62.25
2022-08-07T07:53:51.934Z,62.95
2022-08-07T07:54:50.854Z,61.85
2022-08-07T07:55:45.715Z,62.52
2022-08-07T07:56:42.658Z,61.82
2022-08-07T07:57:50.514Z,60.12
2022-08-07T07:58:42.797Z,60.12
2022-08-07T07:59:52.223Z,60.82
2022-08-07T08:00:43.059Z,59.92
2022-08-07T08:02:03.812Z,61.42
2022-08-07T08:03:04.720Z,60.29
2022-08-07T08:04:05.770Z,59.69
2022-08-07T08:04:43.633Z,60.89
2022-08-07T08:05:54.338Z,60.69
2022-08-07T08:06:50.913Z,58.67
2022-08-07T08:07:59.782Z,57.93
2022-08-07T08:08:44.066Z,58.04
2022-08-07T08:09:52.358Z,57.41
2022-08-07T08:10:44.299Z,57.71
2022-08-07T08:12:00.060Z,57.91
2022-08-07T08:12:52.233Z,57.18
2022-08-07T08:13:53.989Z,56.79
2022-08-07T08:14:44.787Z,57.98
2022-08-07T08:15:57.712Z,55.96
2022-08-07T08:18:36.531Z,55.56
2022-08-07T08:18:36.891Z,55.13
2022-08-07T08:18:45.315Z,53.24
2022-08-07T08:20:18.169Z,53.96
2022-08-07T08:20:45.586Z,54.96
2022-08-07T08:21:56.014Z,54.53
2022-08-07T08:22:55.845Z,54.16
2022-08-07T08:23:46.209Z,54.64
2022-08-07T08:24:46.650Z,55.06
2022-08-07T08:25:49.564Z,55.54
2022-08-07T08:26:45.319Z,54.04
2022-08-07T08:27:56.276Z,52.32
2022-08-07T08:28:46.581Z,52.22
2022-08-07T08:29:54.518Z,51.10
2022-08-07T08:30:51.392Z,50.80
2022-08-07T08:32:18.251Z,50.80
2022-08-07T08:32:49.090Z,52.49
2022-08-07T08:33:49.431Z,51.77
2022-08-07T08:34:47.379Z,51.00
2022-08-07T08:35:49.703Z,52.00
2022-08-07T08:36:46.621Z,51.52
2022-08-07T08:38:01.445Z,52.42
2022-08-07T08:38:47.876Z,51.50
2022-08-07T08:39:54.846Z,50.98
2022-08-07T08:40:48.091Z,50.05
2022-08-07T08:41:58.234Z,47.74
2022-08-07T08:42:48.343Z,46.53
2022-08-07T08:43:50.460Z,47.50
2022-08-07T08:44:48.600Z,46.58
2022-08-07T08:46:00.796Z,45.21
2022-08-07T08:46:48.843Z,46.31
2022-08-07T08:47:54.767Z,46.31
2022-08-07T08:48:51.065Z,47.00
2022-08-07T08:50:04.908Z,46.70
2022-08-07T08:50:49.350Z,47.08
2022-08-07T08:51:49.494Z,45.39
2022-08-07T08:52:53.806Z,45.37
2022-08-07T08:53:48.751Z,44.87
2022-08-07T08:54:48.878Z,43.85
2022-08-07T08:55:54.630Z,43.46
2022-08-07T08:56:50.109Z,43.06
2022-08-07T08:57:49.242Z,43.85
2022-08-07T08:58:50.468Z,43.96
2022-08-07T08:59:50.484Z,44.25
2022-08-07T09:00:52.645Z,45.45
2022-08-07T09:01:49.839Z,44.85
2022-08-07T09:02:52.489Z,43.85
2022-08-07T09:03:53.047Z,43.64
2022-08-07T09:04:51.045Z,43.02
2022-08-07T09:05:52.941Z,42.92
2022-08-07T09:06:50.337Z,43.02
2022-08-07T09:07:57.436Z,41.85
2022-08-07T09:08:51.540Z,42.92
2022-08-07T09:09:57.172Z,41.71
2022-08-07T09:10:51.812Z,41.49
2022-08-07T09:11:55.441Z,41.49
2022-08-07T09:12:52.997Z,41.69
2022-08-07T09:13:51.203Z,41.71
2022-08-07T09:14:51.360Z,41.99
2022-08-07T09:16:23.066Z,41.60
2022-08-07T09:16:52.592Z,41.38
2022-08-07T09:18:00.391Z,39.77
2022-08-07T09:18:53.293Z,40.07
2022-08-07T09:19:55.287Z,41.25
2022-08-07T09:21:57.905Z,40.94
2022-08-07T09:24:33.305Z,39.26
2022-08-07T09:24:52.443Z,39.58
2022-08-07T09:25:07.083Z,38.57
2022-08-07T09:25:58.827Z,38.45
2022-08-07T09:26:57.970Z,38.45
2022-08-07T09:28:00.691Z,38.57
2022-08-07T09:30:00.560Z,39.06
2022-08-07T09:30:04.786Z,38.94
2022-08-07T09:30:59.426Z,38.75
2022-08-07T09:31:58.605Z,39.73
2022-08-07T09:32:58.686Z,39.22
2022-08-07T09:33:59.807Z,37.72
2022-08-07T09:34:58.921Z,38.61
2022-08-07T09:36:04.889Z,37.60
2022-08-07T09:37:00.155Z,36.61
2022-08-07T09:38:00.477Z,36.60
2022-08-07T09:38:59.484Z,36.48
2022-08-07T09:40:00.643Z,36.96
2022-08-07T09:40:59.697Z,35.48
2022-08-07T09:42:05.848Z,35.58
2022-08-07T09:43:00.946Z,35.36
2022-08-07T09:44:06.092Z,35.56
2022-08-07T09:47:24.370Z,35.94
2022-08-07T09:47:49.909Z,35.54
2022-08-07T09:47:52.543Z,34.86
2022-08-07T09:48:05.207Z,35.27
2022-08-07T09:50:01.223Z,35.97
2022-08-07T09:50:18.977Z,35.25
2022-08-07T09:51:01.968Z,35.25
2022-08-07T09:52:15.852Z,34.54
2022-08-07T09:53:02.207Z,35.23
2022-08-07T09:54:02.890Z,34.51
2022-08-07T09:55:01.449Z,35.99
2022-08-07T09:56:03.443Z,35.68
2022-08-07T09:57:01.707Z,35.88
2022-08-07T09:58:01.829Z,36.38
2022-08-07T09:59:01.979Z,36.61
2022-08-07T10:00:03.377Z,37.51
2022-08-07T10:01:02.207Z,36.99
2022-08-07T10:02:03.399Z,37.09
2022-08-07T10:03:08.370Z,36.99
2022-08-07T10:04:14.202Z,36.30
2022-08-07T10:05:12.617Z,35.69
2022-08-07T10:06:08.983Z,36.48
2022-08-07T10:07:04.017Z,36.27
2022-08-07T10:08:03.259Z,36.21
2022-08-07T10:09:03.279Z,36.60
2022-08-07T10:10:03.476Z,36.11
2022-08-07T10:12:00.627Z,36.02
2022-08-07T10:12:15.198Z,37.09
2022-08-07T10:13:04.790Z,36.32
2022-08-07T10:14:04.878Z,36.36
2022-08-07T10:15:04.019Z,37.24
2022-08-07T10:16:05.105Z,38.04
2022-08-07T10:17:04.310Z,37.21
2022-08-07T10:18:05.430Z,36.63
2022-08-07T10:19:04.529Z,37.09
2022-08-07T10:20:05.650Z,35.46
2022-08-07T10:21:19.950Z,35.11
2022-08-07T10:22:15.833Z,33.20
2022-08-07T10:23:07.625Z,34.08
2022-08-07T10:24:08.474Z,34.06
2022-08-07T10:25:05.284Z,33.87
2022-08-07T10:26:05.432Z,33.89
2022-08-07T10:27:06.690Z,33.69
2022-08-07T10:28:05.667Z,34.44
2022-08-07T10:29:05.821Z,33.44
2022-08-07T10:30:06.412Z,31.76
2022-08-07T10:31:11.316Z,31.27
2022-08-07T10:32:36.396Z,30.78
2022-08-07T10:33:08.389Z,31.17
2022-08-07T10:34:17.925Z,31.47
2022-08-07T10:35:09.166Z,32.06
2022-08-07T10:36:11.331Z,31.35
2022-08-07T10:37:12.399Z,31.34
2022-08-07T10:38:21.676Z,31.62
2022-08-07T10:39:08.463Z,30.16
2022-08-07T10:40:08.832Z,30.25
2022-08-07T10:41:07.294Z,31.29
2022-08-07T10:42:09.288Z,30.22
2022-08-07T10:43:08.564Z,31.07
2022-08-07T10:44:07.963Z,31.87
2022-08-07T10:45:07.834Z,31.70
2022-08-07T10:46:07.946Z,32.43
2022-08-07T10:47:11.788Z,33.44
2022-08-07T10:48:08.672Z,33.82
2022-08-07T10:49:08.298Z,33.62
2022-08-07T10:50:08.446Z,33.20
2022-08-07T10:51:16.439Z,34.63
2022-08-07T10:52:13.411Z,35.23
2022-08-07T10:53:09.134Z,35.00
2022-08-07T10:54:08.953Z,32.40
2022-08-07T10:55:27.068Z,32.28
2022-08-07T10:56:11.113Z,32.63
2022-08-07T10:57:10.329Z,30.68
2022-08-07T10:58:10.225Z,30.91
2022-08-07T10:59:09.587Z,31.71
2022-08-07T11:00:09.698Z,32.98
2022-08-07T11:01:11.657Z,32.66
2022-08-07T11:02:12.365Z,31.65
2022-08-07T11:03:12.756Z,30.93
2022-08-07T11:04:16.542Z,30.83
2022-08-07T11:05:11.285Z,29.06
2022-08-07T11:06:10.370Z,30.91
2022-08-07T11:07:14.878Z,29.63
2022-08-07T11:08:11.888Z,29.99
2022-08-07T11:09:11.390Z,29.70
2022-08-07T11:10:11.315Z,30.10
2022-08-07T11:11:10.975Z,30.00
2022-08-07T11:12:11.115Z,29.06
2022-08-07T11:13:16.923Z,30.65
2022-08-07T11:14:57.057Z,29.84
2022-08-07T11:15:17.210Z,29.22
2022-08-07T11:16:12.594Z,29.44
2022-08-07T11:17:11.715Z,28.92
2022-08-07T11:18:12.538Z,29.20
2022-08-07T11:19:11.956Z,29.41
2022-08-07T11:20:12.065Z,28.69
2022-08-07T11:21:12.185Z,28.68
2022-08-07T11:22:27.211Z,28.49
2022-08-07T11:23:26.363Z,27.50
2022-08-07T11:24:13.567Z,28.18
2022-08-07T11:25:12.669Z,29.57
2022-08-07T11:26:13.054Z,29.38
2022-08-07T11:27:13.532Z,28.72
2022-08-07T11:28:15.289Z,29.83
2022-08-07T11:29:42.093Z,30.69
2022-08-07T11:30:18.193Z,30.29
2022-08-07T11:31:13.476Z,29.10
2022-08-07T11:32:13.508Z,28.61
2022-08-07T11:33:14.035Z,30.77
2022-08-07T11:34:16.332Z,32.10
2022-08-07T11:35:16.677Z,33.33
2022-08-07T11:36:15.077Z,33.87
2022-08-07T11:37:15.166Z,34.89
2022-08-07T11:38:17.318Z,35.99
2022-08-07T11:39:14.762Z,36.70
2022-08-07T11:40:19.156Z,36.02
2022-08-07T11:41:18.181Z,36.48
2022-08-07T11:42:18.803Z,34.79
2022-08-07T11:43:15.395Z,35.28
2022-08-07T11:44:18.641Z,33.51
2022-08-07T11:45:15.078Z,33.62
2022-08-07T11:46:16.921Z,34.27
2022-08-07T11:47:15.309Z,34.89
2022-08-07T11:48:29.136Z,36.02
2022-08-07T11:49:51.171Z,36.87
2022-08-07T11:50:32.384Z,37.49
2022-08-07T11:51:41.817Z,38.13
2022-08-07T11:52:16.930Z,38.42
2022-08-07T11:53:16.047Z,39.63
2022-08-07T11:54:16.139Z,39.43
2022-08-07T11:55:19.122Z,38.44
2022-08-07T11:56:26.786Z,38.09
2022-08-07T11:57:17.542Z,36.68
2022-08-07T11:58:16.717Z,35.00
2022-08-07T12:00:08.816Z,33.92
2022-08-07T12:00:19.168Z,31.92
2022-08-07T12:01:20.154Z,32.06
2022-08-07T12:02:21.001Z,30.64
2022-08-07T12:03:41.640Z,30.71
2022-08-07T12:04:18.420Z,29.94
2022-08-07T12:05:28.492Z,31.04
2022-08-07T12:06:36.879Z,29.45
2022-08-07T12:07:27.048Z,30.09
2022-08-07T12:08:25.936Z,28.52
2022-08-07T12:09:23.804Z,29.28
2022-08-07T12:10:18.195Z,28.53
2022-08-07T12:11:20.523Z,28.53
2022-08-07T12:12:18.442Z,28.72
2022-08-07T12:13:35.302Z,28.68
2022-08-07T12:14:19.712Z,27.97
2022-08-07T12:15:45.983Z,27.06
2022-08-07T12:16:29.937Z,27.73
2022-08-07T12:17:20.479Z,27.54
2022-08-07T12:18:22.067Z,27.05
2022-08-07T12:19:21.671Z,27.73
2022-08-07T12:20:30.087Z,27.83
2022-08-07T12:21:21.029Z,26.95
2022-08-07T12:22:38.940Z,28.12
2022-08-07T12:23:21.381Z,27.04
2022-08-07T12:24:37.533Z,27.93
2022-08-07T12:26:02.915Z,27.73
2022-08-07T12:26:30.104Z,27.33
2022-08-07T12:27:27.997Z,27.05
2022-08-07T12:28:30.801Z,27.05
2022-08-07T12:29:37.664Z,26.29
2022-08-07T12:30:23.370Z,27.37
2022-08-07T12:31:22.415Z,27.33
2022-08-07T12:32:21.018Z,25.68
2022-08-07T12:33:23.241Z,26.57
2022-08-07T12:34:22.775Z,26.07
2022-08-07T12:35:21.413Z,26.64
2022-08-07T12:36:30.220Z,26.33
2022-08-07T12:37:23.470Z,26.06
2022-08-07T12:38:29.412Z,26.42
2022-08-07T12:39:43.996Z,25.43
2022-08-07T12:40:47.941Z,24.84
2022-08-07T12:41:23.218Z,24.92
2022-08-07T12:42:28.057Z,25.49
2022-08-07T12:44:02.255Z,24.90
2022-08-07T12:44:23.594Z,24.51
2022-08-07T12:45:22.803Z,24.41
2022-08-07T12:46:31.960Z,24.34
2022-08-07T12:47:26.949Z,24.46
2022-08-07T12:48:28.182Z,25.02
2022-08-07T12:49:39.927Z,25.29
2022-08-07T12:50:38.371Z,25.42
2022-08-07T12:51:24.482Z,25.42
2022-08-07T12:52:24.615Z,26.12
2022-08-07T12:53:23.764Z,27.89
2022-08-07T12:54:38.259Z,29.83
2022-08-07T12:55:40.585Z,30.65